GMMJ weather

El Jadida Airport
El Jadida, El Jadida Province, Morocco

Public forecast

Using degrees Celsius for public forecast. Weather courtesy of forecast.io.

Closest aviation weather report (METAR) to El Jadida Airport

Closest report is Anfa Airport, 47.0 nm (87.0 km) ENE. Retrieved 2019/10/15 20:00 UTC (45 minutes ago):

GMMC 152000Z 04008KT CAVOK 19/14 Q1022

Closest aviation forecast (TAF) to El Jadida Airport

Closest forecast is Mohammed V International Airport, 47.2 nm (87.4 km) E. Retrieved 2019/10/15 18:18 UTC (2 hours ago):

TAF GMMN 151700Z 1518/1624 36013KT 9999 SCT016 BECMG 1520/1523 VRB02KT 5000 BKN016 PROB40 TEMPO 1600/1608 3000 BR BKN005 FM161000 02008KT CAVOK TEMPO 1612/1618 36015KT BECMG 1619/1621 SCT016